This is the latest recevied weather packets stored in our database for station/object OE5RBO. If no packets are shown the sender has not sent any weather packets the latest 10 day(s).
| Time | Temp. | Humidity | Pressure | Rain* | Wind** | Luminosity | Snow |
|---|---|---|---|---|---|---|---|
| 1788405877 | 17.78° C | 84% | 1022.1 hPa | 0 mm | - | - | - |
| 1788405277 | 17.78° C | 85% | 1022 hPa | 0 mm | - | - | - |
| 1788404676 | 18.33° C | 83% | 1022 hPa | 0 mm | - | - | - |
| 1788404076 | 18.33° C | 83% | 1022 hPa | 0 mm | - | - | - |
| 1788403488 | 18.33° C | 82% | 1022 hPa | 0 mm | - | - | - |
| 1788402875 | 18.33° C | 83% | 1021.9 hPa | 0 mm | - | - | - |
| 1788402275 | 18.33° C | 83% | 1021.9 hPa | 0 mm | - | - | - |
| 1788401675 | 18.33° C | 84% | 1021.8 hPa | 0 mm | - | - | - |
| 1788401074 | 18.33° C | 83% | 1021.8 hPa | 0 mm | - | - | - |
| 1788400474 | 18.33° C | 84% | 1021.7 hPa | 0 mm | - | - | - |
| 1788399873 | 17.78° C | 85% | 1021.7 hPa | 0 mm | - | - | - |
| 1788399273 | 17.22° C | 90% | 1021.7 hPa | 0 mm | - | - | - |
| 1788398673 | 17.22° C | 92% | 1021.7 hPa | 0 mm | - | - | - |
| 1788398072 | 17.78° C | 89% | 1021.4 hPa | 0 mm | - | - | - |
| 1788397472 | 17.78° C | 88% | 1021.2 hPa | 0 mm | - | - | - |
| 1788396872 | 18.33° C | 87% | 1021.3 hPa | 0 mm | - | - | - |
| 1788395671 | 18.33° C | 83% | 1021.2 hPa | 0 mm | - | - | - |
| 1788393870 | 16.67° C | 92% | 1021.3 hPa | 0 mm | - | - | - |
| 1788393270 | 16.67° C | 93% | 1021.2 hPa | 0 mm | - | - | - |
| 1788392669 | 16.67° C | 92% | 1021.2 hPa | 0 mm | - | - | - |
| 1788392069 | 17.22° C | 92% | 1021.2 hPa | 0 mm | - | - | - |
| 1788391468 | 17.22° C | 90% | 1021.4 hPa | 0 mm | - | - | - |
| 1788390868 | 17.22° C | 91% | 1021.6 hPa | 0 mm | - | - | - |
| 1788389067 | 17.22° C | 89% | 1021.6 hPa | 0 mm | - | - | - |
| 1788388466 | 17.22° C | 91% | 1021.6 hPa | 0 mm | - | - | - |
* Rain since midnight (hover to see other rain measurements)
** Current wind speed in m/s (hover to see current wind gust speed)